»·PEaware :: N89455 KSBA-KLAX

N89455 :: KSBA-KLAX

FLIGHT INFORMATION

Flight Status: Arrived
Operator: Privately registered:
United States
More flights under this callsign
Pilot: Dretana A. (25430)
Aircraft: CESSNA 206 STATIONAIR
(C206)
More flights by this aircraft type
Origin: KSBA Santa Barbara Mun
United States
Destination: KLAX Los Angeles Intl
United States
More flights between these airports :: More routes between these airports
Route: KWANG VTU V299 SADDE V107 SMO
File this flight plan on PilotEdge
Remarks:
Altitude:
(Current/Filed)
5,000ft
Speed:
(Current/Filed)
120kts
Departed: 24-Aug-19 08:26 PM
Arrived: 24-Aug-19 09:17 PM
Distance/Time
Traveled:
78nm/0:51
Distance/Time
To Go:
Arrived

Flight Plot

Page will automatically refresh every two minutes.


Map Options




Map Legend


Flown Route
Filed Route
Departure Airport
Arrival Airport
Navaid (VOR, NDB)
Fix

Horizontal Profiles

Position Reports

Time Latitude Longitude Heading Altitude Ground
Speed
24-Aug-19 19:58 28.951529 -98.519451 328 436ft 0kts
24-Aug-19 19:59 34.431455 -119.831911 357 13ft 0kts
24-Aug-19 20:00 34.431455 -119.831911 357 13ft 0kts
24-Aug-19 20:01 34.431455 -119.831911 357 13ft 0kts
24-Aug-19 20:02 34.431455 -119.831911 357 13ft 0kts
24-Aug-19 20:03 34.431455 -119.831911 357 13ft 0kts
24-Aug-19 20:04 34.431455 -119.831911 357 13ft 0kts
24-Aug-19 20:05 34.431455 -119.831911 357 13ft 0kts
24-Aug-19 20:06 34.431455 -119.831911 357 13ft 0kts
24-Aug-19 20:07 34.431455 -119.831911 357 13ft 0kts
24-Aug-19 20:08 34.431455 -119.831911 357 13ft 0kts
24-Aug-19 20:09 34.431455 -119.831911 357 13ft 0kts
24-Aug-19 20:10 34.431455 -119.831911 357 13ft 0kts
24-Aug-19 20:11 34.431455 -119.831911 357 13ft 0kts
24-Aug-19 20:11 34.431455 -119.831911 357 13ft 0kts
24-Aug-19 20:13 34.431455 -119.831911 357 13ft 0kts
24-Aug-19 20:14 34.431455 -119.831911 357 13ft 0kts
24-Aug-19 20:14 34.431455 -119.831911 357 13ft 0kts
24-Aug-19 20:16 34.431456 -119.831911 357 13ft 0kts
24-Aug-19 20:16 34.431456 -119.831911 357 13ft 0kts
24-Aug-19 20:17 34.431456 -119.831911 357 13ft 0kts
24-Aug-19 20:19 34.431456 -119.831911 357 13ft 0kts
24-Aug-19 20:19 34.431456 -119.831911 357 13ft 0kts
24-Aug-19 20:20 34.432090 -119.835465 248 14ft 13kts
24-Aug-19 20:21 34.430644 -119.839840 240 13ft 0kts
24-Aug-19 20:22 34.430644 -119.839840 240 13ft 0kts
24-Aug-19 20:23 34.430644 -119.839841 240 13ft 0kts
24-Aug-19 20:24 34.430438 -119.840162 192 14ft 11kts
24-Aug-19 20:25 34.407449 -119.834433 172 464ft 109kts
24-Aug-19 20:26 34.375606 -119.824856 157 1142ft 123kts
24-Aug-19 20:27 34.342601 -119.813197 170 1483ft 129kts
24-Aug-19 20:28 34.310280 -119.798952 140 1849ft 126kts
24-Aug-19 20:29 34.299513 -119.759979 110 2264ft 121kts
24-Aug-19 20:30 34.289370 -119.721614 105 2733ft 121kts
24-Aug-19 20:31 34.279379 -119.683497 108 3238ft 119kts
24-Aug-19 20:32 34.269657 -119.645232 105 3744ft 121kts
24-Aug-19 20:33 34.258580 -119.607085 100 4342ft 118kts
24-Aug-19 20:34 34.249333 -119.568338 107 4916ft 123kts
24-Aug-19 20:35 34.238517 -119.525116 109 5011ft 144kts
24-Aug-19 20:36 34.224544 -119.479012 108 5014ft 144kts
24-Aug-19 20:37 34.214039 -119.431868 102 5000ft 146kts
24-Aug-19 20:38 34.202557 -119.384609 104 4999ft 146kts
24-Aug-19 20:39 34.190460 -119.337676 105 5000ft 146kts
24-Aug-19 20:40 34.178347 -119.290918 105 4998ft 144kts
24-Aug-19 20:41 34.166312 -119.244532 105 5000ft 144kts
24-Aug-19 20:42 34.154246 -119.198267 105 5000ft 144kts
24-Aug-19 20:43 34.142103 -119.151797 106 5000ft 145kts
24-Aug-19 20:44 34.129934 -119.105329 107 5000ft 145kts
24-Aug-19 20:45 34.117805 -119.059112 105 4999ft 144kts
24-Aug-19 20:46 34.105570 -119.012931 105 5000ft 144kts
24-Aug-19 20:47 34.093259 -118.966695 105 4999ft 144kts
24-Aug-19 20:48 34.080936 -118.920482 105 5000ft 144kts
24-Aug-19 20:49 34.068597 -118.874284 105 5000ft 144kts
24-Aug-19 20:50 34.056248 -118.828133 105 5000ft 144kts
24-Aug-19 20:51 34.043957 -118.782272 105 4999ft 143kts
24-Aug-19 20:52 34.036437 -118.735367 93 5000ft 142kts
24-Aug-19 20:53 34.032103 -118.688007 93 5000ft 142kts
24-Aug-19 20:54 34.027705 -118.640581 93 4999ft 142kts
24-Aug-19 20:55 34.023281 -118.593153 93 4999ft 142kts
24-Aug-19 20:56 34.018813 -118.545460 93 5000ft 143kts
24-Aug-19 20:57 34.014299 -118.497505 93 5000ft 143kts
24-Aug-19 20:58 34.014274 -118.449836 82 5000ft 142kts
24-Aug-19 20:59 34.016846 -118.402228 82 5000ft 142kts
24-Aug-19 21:00 34.019428 -118.354623 82 4999ft 142kts
24-Aug-19 21:01 34.021989 -118.307088 82 5000ft 142kts
24-Aug-19 21:02 34.024552 -118.259498 82 5000ft 142kts
24-Aug-19 21:03 34.027235 -118.211800 82 4999ft 143kts
24-Aug-19 21:04 34.030685 -118.163806 83 5000ft 144kts
24-Aug-19 21:05 34.034842 -118.115806 82 5002ft 143kts
24-Aug-19 21:06 34.004091 -118.095021 174 4499ft 143kts
24-Aug-19 21:07 33.966769 -118.095429 221 3568ft 135kts
24-Aug-19 21:08 33.959064 -118.136607 262 2759ft 107kts
24-Aug-19 21:09 33.956848 -118.172391 273 3004ft 115kts
24-Aug-19 21:10 33.954512 -118.212904 262 2954ft 123kts
24-Aug-19 21:11 33.950611 -118.252335 262 2307ft 117kts
24-Aug-19 21:12 33.946257 -118.290862 262 1416ft 110kts
24-Aug-19 21:13 33.943318 -118.326558 262 905ft 98kts
24-Aug-19 21:14 33.940778 -118.354397 260 608ft 79kts
24-Aug-19 21:15 33.937743 -118.381269 262 200ft 80kts
24-Aug-19 21:16 33.935580 -118.393670 176 129ft 0kts
24-Aug-19 21:17 33.935580 -118.393670 176 129ft 0kts
24-Aug-19 21:18 33.933593 -118.393528 164 129ft 0kts

Navigation Log

Ident Type
Flight plan parsing failed, navigation log unavailable